Time;durP1;ratioP1;P1;durP2;ratioP2;P2;SDS_P1;SDS_P2;PMS_P1;PMS_P2;Temp;Humidity;BMP_temperature;BMP_pressure;BME280_temperature;BME280_humidity;BME280_pressure;Samples;Min_cycle;Max_cycle;Signal;HPM_P1;HPM_P2
2020/12/01 00:00:22;;;;;;;43.13;19.38;;;1.60;99.90;;;;;;5031356;28;20029;-73
2020/12/01 00:02:48;;;;;;;45.42;22.45;;;1.70;99.90;;;;;;5002799;28;20038;-74
2020/12/01 00:05:16;;;;;;;43.05;20.30;;;1.80;99.90;;;;;;5030251;28;20487;-74
2020/12/01 00:07:41;;;;;;;43.30;21.33;;;1.80;99.90;;;;;;5030682;28;20041;-75
2020/12/01 00:10:14;;;;;;;37.20;18.75;;;1.80;99.90;;;;;;5028813;28;20159;-75
2020/12/01 00:12:42;;;;;;;40.35;20.52;;;1.90;99.90;;;;;;5031661;28;20100;-75
2020/12/01 00:15:10;;;;;;;40.58;21.05;;;2.00;99.90;;;;;;5029632;28;20029;-75
2020/12/01 00:17:36;;;;;;;42.58;22.13;;;1.90;99.90;;;;;;5024659;28;20088;-74
2020/12/01 00:20:05;;;;;;;42.75;21.98;;;1.80;99.90;;;;;;5028602;28;20049;-74
2020/12/01 00:22:30;;;;;;;44.65;22.92;;;1.80;99.90;;;;;;5037707;28;20092;-76
2020/12/01 00:24:56;;;;;;;37.30;19.48;;;1.80;99.90;;;;;;5030213;28;20447;-75
2020/12/01 00:27:22;;;;;;;44.65;21.15;;;1.80;99.90;;;;;;5028522;28;20026;-75
2020/12/01 00:29:47;;;;;;;39.08;19.25;;;1.80;99.90;;;;;;5028738;28;20080;-74
2020/12/01 00:32:13;;;;;;;40.50;20.75;;;1.90;99.90;;;;;;5032262;28;20100;-74
2020/12/01 00:34:39;;;;;;;42.20;21.50;;;1.90;99.90;;;;;;5024429;28;20036;-75
2020/12/01 00:37:04;;;;;;;41.65;21.15;;;1.90;99.90;;;;;;5030518;28;20029;-76
2020/12/01 00:39:30;;;;;;;39.80;21.17;;;1.90;99.90;;;;;;5025465;28;20034;-74
2020/12/01 00:41:55;;;;;;;39.03;19.85;;;1.90;99.90;;;;;;5031572;28;20037;-74
2020/12/01 00:44:21;;;;;;;39.30;20.15;;;1.90;99.90;;;;;;5029097;28;20075;-74
2020/12/01 00:46:47;;;;;;;38.10;19.42;;;1.90;99.90;;;;;;5011547;28;20065;-74
2020/12/01 00:49:13;;;;;;;39.75;20.35;;;2.00;99.90;;;;;;5033824;28;20044;-75
2020/12/01 00:51:39;;;;;;;42.72;21.23;;;2.00;99.90;;;;;;5034863;28;20029;-74
2020/12/01 00:54:04;;;;;;;44.08;21.67;;;2.00;99.90;;;;;;5026700;28;20048;-75
2020/12/01 00:56:30;;;;;;;40.75;20.15;;;1.90;99.90;;;;;;5024808;28;20073;-74
2020/12/01 00:58:56;;;;;;;42.10;20.45;;;1.90;99.90;;;;;;5028522;28;20034;-75
2020/12/01 01:01:26;;;;;;;43.05;20.80;;;1.90;99.90;;;;;;5026604;28;20037;-73
2020/12/01 01:03:51;;;;;;;42.03;20.15;;;1.90;99.90;;;;;;5035442;28;20109;-74
2020/12/01 01:06:18;;;;;;;40.95;20.55;;;1.90;99.90;;;;;;5028669;28;20072;-73
2020/12/01 01:08:43;;;;;;;42.65;21.13;;;1.90;99.90;;;;;;5028911;28;20065;-74
2020/12/01 01:11:09;;;;;;;41.00;21.30;;;1.90;99.90;;;;;;5009962;28;20040;-74
2020/12/01 01:13:36;;;;;;;40.90;20.30;;;1.90;99.90;;;;;;5031335;28;20037;-75
2020/12/01 01:16:03;;;;;;;44.47;22.08;;;1.90;99.90;;;;;;5024466;28;20080;-74
2020/12/01 01:18:28;;;;;;;41.95;21.17;;;1.90;99.90;;;;;;5020183;28;20033;-74
2020/12/01 01:20:55;;;;;;;40.33;21.27;;;1.90;99.90;;;;;;5002867;28;20512;-74
2020/12/01 01:23:21;;;;;;;40.30;20.80;;;1.90;99.90;;;;;;5025742;28;20045;-74
2020/12/01 01:25:46;;;;;;;39.33;19.98;;;1.90;99.90;;;;;;5025746;28;20029;-74
2020/12/01 01:28:12;;;;;;;42.75;20.98;;;1.80;99.90;;;;;;5037808;28;20056;-75
2020/12/01 01:30:40;;;;;;;46.92;22.52;;;1.90;99.90;;;;;;5020334;28;20077;-75
2020/12/01 01:33:07;;;;;;;42.05;19.85;;;1.90;99.90;;;;;;5022634;28;20054;-75
2020/12/01 01:35:34;;;;;;;42.50;21.08;;;1.90;99.90;;;;;;5027723;28;20406;-75
2020/12/01 01:38:01;;;;;;;42.58;21.92;;;1.90;99.90;;;;;;5025327;28;20068;-75
2020/12/01 01:40:29;;;;;;;41.10;20.42;;;2.00;99.90;;;;;;5021547;28;20038;-75
2020/12/01 01:42:56;;;;;;;41.60;20.73;;;1.90;99.90;;;;;;5023293;28;20040;-74
2020/12/01 01:45:35;;;;;;;39.58;19.95;;;2.00;99.90;;;;;;5024325;28;20033;-74
2020/12/01 01:48:01;;;;;;;40.70;20.70;;;2.00;99.90;;;;;;5025241;28;20029;-74
2020/12/01 01:50:28;;;;;;;46.80;20.77;;;1.90;99.90;;;;;;5019562;28;20036;-74
2020/12/01 01:52:55;;;;;;;43.85;22.23;;;1.90;99.90;;;;;;5007720;28;20034;-75
2020/12/01 01:55:24;;;;;;;42.75;20.98;;;1.90;99.90;;;;;;5025244;28;20052;-75
2020/12/01 01:57:58;;;;;;;40.83;21.30;;;1.90;99.90;;;;;;5025836;28;20021;-74
2020/12/01 02:00:57;;;;;;;44.67;20.88;;;1.90;99.90;;;;;;5025938;28;20025;-74
2020/12/01 02:03:48;;;;;;;41.05;20.75;;;2.00;99.90;;;;;;5038002;28;20049;-74
2020/12/01 02:06:51;;;;;;;43.08;20.17;;;2.00;99.90;;;;;;5028097;28;20038;-74
2020/12/01 02:09:42;;;;;;;41.25;20.15;;;2.00;99.90;;;;;;5009504;28;20040;-74
2020/12/01 02:12:11;;;;;;;39.20;19.65;;;2.00;99.90;;;;;;5029143;28;20438;-76
2020/12/01 02:14:43;;;;;;;42.72;21.27;;;2.00;99.90;;;;;;5026536;28;20042;-74
2020/12/01 02:17:18;;;;;;;39.53;20.45;;;2.00;99.90;;;;;;5030603;28;20140;-74
2020/12/01 02:19:44;;;;;;;38.00;19.48;;;2.00;99.90;;;;;;5028399;28;20100;-75
2020/12/01 02:22:14;;;;;;;44.67;21.90;;;2.00;99.90;;;;;;5041392;28;20120;-74
2020/12/01 02:24:40;;;;;;;39.05;20.20;;;2.00;99.90;;;;;;5019561;28;20087;-73
2020/12/01 02:27:06;;;;;;;41.20;22.00;;;2.00;99.90;;;;;;5038845;28;20042;-73
2020/12/01 02:29:35;;;;;;;41.83;21.67;;;2.00;99.90;;;;;;5022415;28;20034;-75
2020/12/01 02:32:03;;;;;;;43.97;21.38;;;1.90;99.90;;;;;;5036207;28;20102;-75
2020/12/01 02:34:39;;;;;;;42.97;21.50;;;1.90;99.90;;;;;;5031581;28;20053;-74
2020/12/01 02:37:06;;;;;;;40.10;20.58;;;1.90;99.90;;;;;;5038705;28;20052;-74
2020/12/01 02:39:32;;;;;;;42.65;20.70;;;2.00;99.90;;;;;;5031548;28;20454;-75
2020/12/01 02:42:05;;;;;;;41.72;21.45;;;1.90;99.90;;;;;;5037320;28;20033;-74
2020/12/01 02:44:31;;;;;;;41.38;19.38;;;1.90;99.90;;;;;;5037040;28;20052;-75
2020/12/01 02:47:00;;;;;;;42.30;20.65;;;1.90;99.90;;;;;;5025435;28;20042;-74
2020/12/01 02:49:26;;;;;;;44.03;21.58;;;1.90;99.90;;;;;;5035809;28;20049;-72
2020/12/01 02:51:51;;;;;;;41.85;20.70;;;2.10;99.90;;;;;;5036897;28;20033;-75
2020/12/01 02:54:17;;;;;;;41.03;20.17;;;1.90;99.90;;;;;;5031737;28;20033;-74
2020/12/01 02:56:45;;;;;;;41.47;19.58;;;1.90;99.90;;;;;;5017612;28;20064;-75
2020/12/01 02:59:12;;;;;;;46.42;21.80;;;1.90;99.90;;;;;;5017093;28;20084;-75
2020/12/01 03:01:38;;;;;;;37.35;18.67;;;1.90;99.90;;;;;;5038527;28;20047;-75
2020/12/01 03:04:04;;;;;;;39.97;20.70;;;1.90;99.90;;;;;;5023512;28;20414;-74
2020/12/01 03:06:29;;;;;;;41.13;20.60;;;1.90;99.90;;;;;;5030814;28;20037;-74
2020/12/01 03:08:55;;;;;;;40.97;20.90;;;1.90;99.90;;;;;;5010339;28;20053;-75
2020/12/01 03:11:20;;;;;;;44.00;20.90;;;1.90;99.90;;;;;;5026369;28;20160;-75
2020/12/01 03:13:46;;;;;;;36.03;18.70;;;2.00;99.90;;;;;;5028764;28;20391;-74
2020/12/01 03:16:12;;;;;;;35.03;18.08;;;2.00;99.90;;;;;;5028877;28;20026;-73
2020/12/01 03:18:43;;;;;;;39.45;18.70;;;2.00;99.90;;;;;;5027507;28;20037;-75
2020/12/01 03:21:10;;;;;;;;;;;1.90;99.90;;;;;;5029496;28;20037;-74
2020/12/01 03:23:36;;;;;;;34.80;17.38;;;1.90;99.90;;;;;;5031091;28;19923;-73
2020/12/01 03:26:02;;;;;;;37.58;19.70;;;2.00;99.90;;;;;;5031044;28;20116;-74
2020/12/01 03:28:28;;;;;;;34.97;18.15;;;2.00;99.90;;;;;;5028536;28;20479;-74
2020/12/01 03:30:59;;;;;;;35.45;18.00;;;2.00;99.90;;;;;;5033215;28;20033;-74
2020/12/01 03:33:25;;;;;;;36.28;18.00;;;2.00;99.90;;;;;;5022941;28;20044;-74
2020/12/01 03:35:51;;;;;;;32.88;16.98;;;2.00;99.90;;;;;;5028880;28;20046;-74
2020/12/01 03:38:17;;;;;;;35.85;17.88;;;2.10;99.90;;;;;;5030406;28;20036;-75
2020/12/01 03:40:43;;;;;;;40.47;19.00;;;2.10;99.90;;;;;;5022587;28;20091;-75
2020/12/01 03:43:09;;;;;;;33.97;18.05;;;2.00;99.90;;;;;;5029416;28;20096;-75
2020/12/01 03:45:35;;;;;;;37.50;19.75;;;2.00;99.90;;;;;;5032886;28;20048;-74
2020/12/01 03:48:01;;;;;;;36.13;16.65;;;2.10;99.90;;;;;;5028054;28;20037;-76
2020/12/01 03:50:28;;;;;;;29.20;16.40;;;2.10;99.90;;;;;;5022607;28;20045;-75
2020/12/01 03:52:53;;;;;;;34.15;16.73;;;2.10;99.90;;;;;;5029485;28;20503;-74
2020/12/01 03:55:21;;;;;;;35.75;17.77;;;2.10;99.90;;;;;;5025495;28;20483;-74
2020/12/01 03:57:47;;;;;;;33.83;16.02;;;2.10;99.90;;;;;;5032292;28;20046;-75
2020/12/01 04:00:19;;;;;;;31.13;16.15;;;2.10;99.90;;;;;;5028608;28;20051;-76
2020/12/01 04:02:44;;;;;;;31.77;16.63;;;2.10;99.90;;;;;;5030009;28;20037;-73
2020/12/01 04:05:11;;;;;;;30.33;16.08;;;2.10;99.90;;;;;;5027506;28;20045;-73
2020/12/01 04:07:39;;;;;;;29.05;15.65;;;2.20;99.90;;;;;;5028836;28;20069;-74
2020/12/01 04:10:05;;;;;;;34.72;16.33;;;2.10;99.90;;;;;;5031914;28;20032;-73
2020/12/01 04:12:32;;;;;;;34.50;16.50;;;2.20;99.90;;;;;;5028477;28;20037;-74
2020/12/01 04:14:58;;;;;;;33.70;15.57;;;2.20;99.90;;;;;;5021536;28;20038;-74
2020/12/01 04:17:24;;;;;;;28.80;15.18;;;2.20;99.90;;;;;;5030221;28;20076;-75
2020/12/01 04:19:50;;;;;;;29.58;15.57;;;2.20;99.90;;;;;;5027651;28;20057;-74
2020/12/01 04:22:16;;;;;;;29.30;15.27;;;2.30;99.90;;;;;;5030865;28;20030;-74
2020/12/01 04:24:42;;;;;;;27.92;14.27;;;2.30;99.90;;;;;;5029645;28;20029;-74
2020/12/01 04:27:09;;;;;;;27.70;15.15;;;2.30;99.90;;;;;;5028485;28;20048;-74
2020/12/01 04:29:35;;;;;;;30.63;15.13;;;2.30;99.90;;;;;;5025984;28;20068;-75
2020/12/01 04:32:01;;;;;;;31.33;15.55;;;2.30;99.90;;;;;;5016053;28;20025;-74
2020/12/01 04:34:27;;;;;;;28.45;14.60;;;2.30;99.90;;;;;;5024264;28;20029;-74
2020/12/01 04:36:52;;;;;;;30.10;14.70;;;2.30;99.90;;;;;;5027642;28;20372;-74
2020/12/01 04:39:18;;;;;;;29.60;14.95;;;2.40;99.90;;;;;;5021296;28;20033;-75
2020/12/01 04:41:45;;;;;;;28.27;14.63;;;2.40;99.90;;;;;;5020716;28;20049;-74
2020/12/01 04:44:31;;;;;;;28.50;14.38;;;2.40;99.90;;;;;;5033814;28;20060;-75
2020/12/01 04:47:07;;;;;;;29.80;14.35;;;2.50;99.90;;;;;;5022850;28;20052;-74
2020/12/01 04:49:37;;;;;;;30.90;15.68;;;2.50;99.90;;;;;;5021965;28;20033;-75
2020/12/01 04:52:28;;;;;;;30.85;14.18;;;2.40;99.90;;;;;;5021420;28;20031;-74
2020/12/01 04:55:11;;;;;;;27.93;13.90;;;2.40;99.90;;;;;;5025486;28;20032;-74
2020/12/01 04:58:07;;;;;;;27.35;13.77;;;2.40;99.90;;;;;;5027494;28;20095;-75
2020/12/01 05:00:53;;;;;;;30.70;14.98;;;2.40;99.90;;;;;;5038169;28;20087;-76
2020/12/01 05:03:22;;;;;;;28.98;14.70;;;2.40;99.90;;;;;;5025019;28;20402;-74
2020/12/01 05:06:21;;;;;;;29.33;14.23;;;2.40;99.90;;;;;;5045100;28;20038;-75
2020/12/01 05:09:02;;;;;;;31.70;15.43;;;2.50;99.90;;;;;;5019184;28;20154;-75
2020/12/01 05:11:43;;;;;;;29.17;15.05;;;2.50;99.90;;;;;;5018024;28;20033;-74
2020/12/01 05:14:32;;;;;;;35.17;15.38;;;2.50;99.90;;;;;;5032760;28;20034;-73
2020/12/01 05:17:25;;;;;;;32.20;14.88;;;2.50;99.90;;;;;;5025465;28;20041;-74
2020/12/01 05:19:51;;;;;;;35.05;16.42;;;2.50;99.90;;;;;;5039628;28;20042;-74
2020/12/01 05:22:19;;;;;;;33.10;16.33;;;2.50;99.90;;;;;;5027608;28;20042;-74
2020/12/01 05:24:50;;;;;;;31.80;15.40;;;2.50;99.90;;;;;;5024976;28;20052;-75
2020/12/01 05:27:27;;;;;;;33.22;15.82;;;2.50;99.90;;;;;;5018062;28;20017;-74
2020/12/01 05:30:04;;;;;;;34.15;16.77;;;2.50;99.90;;;;;;5020499;28;20056;-74
2020/12/01 05:32:33;;;;;;;32.10;15.60;;;2.50;99.90;;;;;;5027307;28;20021;-74
2020/12/01 05:35:29;;;;;;;32.75;16.85;;;2.50;99.90;;;;;;5029121;28;20080;-74
2020/12/01 05:38:26;;;;;;;32.80;16.25;;;2.60;99.90;;;;;;5030110;28;20042;-74
2020/12/01 05:41:16;;;;;;;33.08;16.70;;;2.50;99.90;;;;;;5018177;28;21400;-74
2020/12/01 05:43:43;;;;;;;34.47;16.25;;;2.60;99.90;;;;;;5027278;28;20107;-73
2020/12/01 05:46:27;;;;;;;37.42;16.50;;;2.60;99.90;;;;;;5027830;28;20060;-74
2020/12/01 05:48:57;;;;;;;40.42;17.98;;;2.60;99.90;;;;;;5023092;28;20037;-74
2020/12/01 05:51:41;;;;;;;35.00;16.42;;;2.60;99.90;;;;;;5015018;28;20041;-75
2020/12/01 05:54:21;;;;;;;35.05;16.27;;;2.60;99.90;;;;;;5031448;28;20041;-74
2020/12/01 05:56:49;;;;;;;36.42;17.17;;;2.60;99.90;;;;;;5025520;28;20450;-74
2020/12/01 05:59:17;;;;;;;34.50;16.05;;;2.50;99.90;;;;;;5026355;28;20036;-75
2020/12/01 06:01:44;;;;;;;40.30;18.23;;;2.50;99.90;;;;;;5025012;28;20164;-75
2020/12/01 06:04:25;;;;;;;36.35;16.85;;;2.60;99.90;;;;;;5022091;28;20025;-74
2020/12/01 06:07:19;;;;;;;32.95;16.27;;;2.60;99.90;;;;;;5021189;28;20037;-75
2020/12/01 06:10:24;;;;;;;32.83;15.95;;;2.60;99.90;;;;;;5022302;28;20033;-74
2020/12/01 06:12:49;;;;;;;34.95;17.13;;;2.70;99.90;;;;;;5021230;28;20072;-73
2020/12/01 06:15:18;;;;;;;36.22;18.05;;;2.60;99.90;;;;;;5023448;28;20450;-75
2020/12/01 06:17:57;;;;;;;35.13;17.52;;;2.70;99.90;;;;;;5026087;28;20444;-75
2020/12/01 06:20:39;;;;;;;39.22;18.38;;;2.60;99.90;;;;;;5018679;28;20492;-74
2020/12/01 06:23:23;;;;;;;37.75;17.98;;;2.60;99.90;;;;;;5028979;28;20138;-75
2020/12/01 06:25:55;;;;;;;38.42;17.65;;;2.60;99.90;;;;;;5027511;28;20374;-74
2020/12/01 06:28:45;;;;;;;39.72;19.35;;;2.60;99.90;;;;;;5029905;28;20039;-75
2020/12/01 06:31:16;;;;;;;41.20;18.10;;;2.60;99.90;;;;;;5026516;28;20030;-74
2020/12/01 06:33:57;;;;;;;39.00;17.55;;;2.60;99.90;;;;;;5026365;28;20026;-76
2020/12/01 06:36:52;;;;;;;32.60;16.55;;;2.60;99.90;;;;;;5023563;28;20022;-74
2020/12/01 06:39:32;;;;;;;35.55;16.77;;;2.50;99.90;;;;;;5028917;28;20495;-75
2020/12/01 06:42:09;;;;;;;42.35;19.42;;;2.60;99.90;;;;;;5026866;28;20479;-74
2020/12/01 06:44:37;;;;;;;41.13;18.60;;;2.60;99.90;;;;;;5023258;28;20035;-74
2020/12/01 06:47:03;;;;;;;35.30;17.02;;;2.60;99.90;;;;;;5025918;28;20372;-74
2020/12/01 06:49:32;;;;;;;34.13;16.92;;;2.60;99.90;;;;;;5013992;28;20053;-74
2020/12/01 06:52:01;;;;;;;36.13;17.48;;;2.60;99.90;;;;;;5025079;28;20080;-75
2020/12/01 06:54:26;;;;;;;39.03;19.15;;;2.70;99.90;;;;;;5022825;28;20034;-73
2020/12/01 06:57:07;;;;;;;42.25;17.83;;;2.60;99.90;;;;;;5028100;28;20048;-74
2020/12/01 06:59:32;;;;;;;33.45;16.58;;;2.60;99.90;;;;;;5026027;28;20044;-75
2020/12/01 07:02:38;;;;;;;38.30;17.65;;;2.60;99.90;;;;;;5031479;28;20036;-74
2020/12/01 07:05:09;;;;;;;33.47;17.27;;;2.70;99.90;;;;;;4952924;28;20416;-74
2020/12/01 07:07:38;;;;;;;33.90;16.80;;;2.70;99.90;;;;;;4969041;28;20510;-74
2020/12/01 07:10:22;;;;;;;35.53;17.30;;;2.70;99.90;;;;;;5001348;28;20052;-74
2020/12/01 07:13:08;;;;;;;32.75;16.27;;;2.70;99.90;;;;;;5024588;28;20040;-74
2020/12/01 07:15:48;;;;;;;31.90;15.95;;;2.80;99.90;;;;;;5023916;28;20562;-74
2020/12/01 07:18:27;;;;;;;34.47;16.83;;;2.80;99.90;;;;;;5032791;28;20077;-74
2020/12/01 07:21:01;;;;;;;32.70;16.45;;;2.80;99.90;;;;;;5029599;28;20103;-74
2020/12/01 07:23:59;;;;;;;31.40;16.23;;;2.80;99.90;;;;;;5039160;28;20407;-75
2020/12/01 07:26:27;;;;;;;35.05;17.48;;;2.80;99.90;;;;;;5024775;28;20097;-75
2020/12/01 07:28:56;;;;;;;37.45;16.83;;;3.40;99.90;;;;;;5024413;28;20037;-75
2020/12/01 07:31:29;;;;;;;31.98;16.42;;;2.80;99.90;;;;;;5023894;28;20721;-74
2020/12/01 07:34:06;;;;;;;38.90;17.60;;;2.80;99.90;;;;;;5019460;28;20042;-73
2020/12/01 07:36:38;;;;;;;36.92;17.35;;;2.80;99.90;;;;;;5032399;28;20060;-74
2020/12/01 07:39:17;;;;;;;39.22;16.83;;;2.80;99.90;;;;;;5028978;28;20040;-74
2020/12/01 07:41:50;;;;;;;32.15;16.33;;;2.80;99.90;;;;;;5041662;28;20083;-73
2020/12/01 07:44:19;;;;;;;33.08;15.73;;;2.80;99.90;;;;;;5034641;28;20021;-74
2020/12/01 07:46:57;;;;;;;31.98;15.00;;;2.80;99.90;;;;;;5032229;28;20041;-75
2020/12/01 07:49:27;;;;;;;21.75;11.73;;;2.90;99.90;;;;;;5019768;28;20044;-74
2020/12/01 07:52:01;;;;;;;22.73;11.68;;;2.90;99.90;;;;;;5028546;28;20041;-75
2020/12/01 07:54:27;;;;;;;24.67;12.90;;;3.00;99.90;;;;;;5026072;28;20118;-75
2020/12/01 07:56:53;;;;;;;22.83;11.05;;;3.00;99.90;;;;;;5028119;28;20037;-74
2020/12/01 07:59:18;;;;;;;23.80;12.38;;;3.00;99.90;;;;;;5026260;28;20041;-75
2020/12/01 08:01:45;;;;;;;27.48;13.80;;;3.00;99.90;;;;;;5012286;28;20050;-74
2020/12/01 08:04:22;;;;;;;42.25;18.08;;;3.10;99.90;;;;;;5035641;28;20080;-74
2020/12/01 08:07:05;;;;;;;32.20;16.40;;;3.00;99.90;;;;;;5032873;28;20055;-74
2020/12/01 08:09:31;;;;;;;35.13;16.88;;;2.90;99.90;;;;;;5027755;28;20087;-74
2020/12/01 08:12:09;;;;;;;31.92;16.92;;;2.90;99.90;;;;;;5030678;28;20033;-74
2020/12/01 08:14:35;;;;;;;32.78;16.88;;;2.80;99.90;;;;;;5026210;28;20110;-75
2020/12/01 08:17:06;;;;;;;33.45;17.58;;;2.80;99.90;;;;;;5021569;28;20064;-75
2020/12/01 08:19:32;;;;;;;35.33;17.25;;;2.80;99.90;;;;;;5027313;28;20445;-75
2020/12/01 08:22:00;;;;;;;36.60;17.65;;;2.80;99.90;;;;;;5028354;28;20406;-74
2020/12/01 08:24:29;;;;;;;31.08;15.57;;;2.80;99.90;;;;;;5027389;28;20052;-74
2020/12/01 08:27:11;;;;;;;33.80;16.13;;;2.80;99.90;;;;;;5030715;28;20116;-75
2020/12/01 08:29:38;;;;;;;31.60;15.88;;;2.80;99.90;;;;;;5021624;28;20040;-75
2020/12/01 08:32:25;;;;;;;31.55;15.63;;;2.80;99.90;;;;;;5029309;28;20021;-75
2020/12/01 08:35:23;;;;;;;28.08;14.98;;;2.80;99.90;;;;;;5042815;28;20053;-75
2020/12/01 08:38:23;;;;;;;29.63;16.38;;;2.80;99.90;;;;;;5028668;28;20041;-75
2020/12/01 08:40:58;;;;;;;33.90;16.65;;;2.80;99.90;;;;;;5022192;28;22073;-74
2020/12/01 08:43:37;;;;;;;30.15;16.00;;;2.80;99.90;;;;;;5028625;28;20116;-74
2020/12/01 08:46:21;;;;;;;33.08;15.52;;;2.70;99.90;;;;;;5025272;28;20033;-75
2020/12/01 08:48:51;;;;;;;35.30;15.40;;;2.80;99.90;;;;;;5025404;28;20041;-74
2020/12/01 08:51:33;;;;;;;28.40;14.07;;;2.80;99.90;;;;;;5024369;28;20029;-73
2020/12/01 08:54:07;;;;;;;;;;;3.40;99.90;;;;;;5027998;28;20568;-74
2020/12/01 08:57:09;;;;;;;25.58;13.48;;;2.90;99.90;;;;;;5018217;28;19917;-74
2020/12/01 08:59:47;;;;;;;24.38;13.55;;;2.90;99.90;;;;;;5001452;28;20080;-72
2020/12/01 09:02:15;;;;;;;29.95;14.05;;;2.90;99.90;;;;;;5021855;28;20037;-74
2020/12/01 09:04:40;;;;;;;29.35;15.10;;;2.90;99.90;;;;;;5026058;28;20075;-74
2020/12/01 09:07:31;;;;;;;25.42;13.93;;;2.90;99.90;;;;;;5025940;28;20038;-75
2020/12/01 09:10:08;;;;;;;;;;;3.00;99.90;;;;;;5031581;28;20025;-74
2020/12/01 09:18:21;;;;;;;26.00;12.88;;;3.10;99.90;;;;;;5028477;28;20429;-76
2020/12/01 09:21:04;;;;;;;24.77;13.25;;;3.10;99.90;;;;;;5029181;28;20036;-74
2020/12/01 09:23:35;;;;;;;26.98;13.18;;;3.00;99.90;;;;;;5032259;28;20072;-75
2020/12/01 09:26:13;;;;;;;23.75;13.77;;;3.00;99.90;;;;;;5033090;28;20030;-75
2020/12/01 09:28:46;;;;;;;24.98;12.90;;;3.10;99.90;;;;;;5028237;28;20049;-74
2020/12/01 09:31:12;;;;;;;23.17;12.60;;;3.00;99.90;;;;;;5016087;28;20406;-74
2020/12/01 09:33:38;;;;;;;22.92;12.57;;;3.00;99.90;;;;;;5025786;28;20039;-75
2020/12/01 09:36:04;;;;;;;26.67;14.00;;;3.10;99.90;;;;;;5024440;28;20614;-75
2020/12/01 09:38:29;;;;;;;23.63;12.57;;;3.10;99.90;;;;;;5022441;28;20033;-75
2020/12/01 09:40:55;;;;;;;29.08;13.05;;;3.10;99.90;;;;;;5022930;28;20427;-74
2020/12/01 09:45:50;;;;;;;26.27;13.70;;;3.20;99.90;;;;;;5024187;28;20099;-73
2020/12/01 09:48:29;;;;;;;25.70;13.93;;;3.20;99.90;;;;;;4984786;28;20049;-75
2020/12/01 09:50:55;;;;;;;28.02;14.02;;;3.20;99.90;;;;;;5027334;28;20141;-75
2020/12/01 10:35:37;;;;;;;33.28;16.08;;;3.60;99.90;;;;;;5018559;28;20513;-75
2020/12/01 10:38:03;;;;;;;32.22;15.70;;;4.10;99.90;;;;;;5022777;28;20041;-75
2020/12/01 10:40:29;;;;;;;31.95;16.23;;;3.50;99.90;;;;;;5028652;28;20091;-75
2020/12/01 10:42:56;;;;;;;30.40;15.93;;;3.50;99.90;;;;;;5033883;28;20069;-75
2020/12/01 10:45:23;;;;;;;29.65;15.90;;;3.50;99.90;;;;;;5021477;28;21850;-75
2020/12/01 10:47:49;;;;;;;33.78;16.85;;;3.50;99.90;;;;;;5015690;28;20514;-75
2020/12/01 10:50:17;;;;;;;36.42;16.33;;;3.50;99.90;;;;;;5020043;28;20503;-75
2020/12/01 10:52:43;;;;;;;34.42;16.52;;;3.60;99.90;;;;;;5017148;28;20065;-74
2020/12/01 10:55:14;;;;;;;31.00;16.33;;;3.60;99.90;;;;;;5022988;28;20088;-74
2020/12/01 10:57:40;;;;;;;35.63;16.77;;;3.60;99.90;;;;;;5027324;28;20041;-75
2020/12/01 11:00:07;;;;;;;36.53;17.77;;;3.60;99.90;;;;;;5025538;28;20099;-73
2020/12/01 11:02:33;;;;;;;40.03;18.10;;;3.60;99.90;;;;;;5021387;28;20032;-74
2020/12/01 11:04:59;;;;;;;34.47;17.60;;;3.60;99.90;;;;;;5026584;28;20140;-73
2020/12/01 11:07:24;;;;;;;40.55;18.90;;;3.60;99.90;;;;;;5023524;28;20100;-74
2020/12/01 11:09:50;;;;;;;41.58;19.67;;;3.60;99.90;;;;;;5023464;28;20103;-74
2020/12/01 11:12:15;;;;;;;35.92;18.75;;;3.60;99.90;;;;;;5021781;28;20065;-74
2020/12/01 11:14:41;;;;;;;36.13;18.00;;;3.60;99.90;;;;;;5023441;28;20113;-75
2020/12/01 11:17:07;;;;;;;38.78;19.10;;;3.60;99.90;;;;;;5006864;28;20049;-76
2020/12/01 11:19:32;;;;;;;38.95;18.50;;;3.60;99.90;;;;;;5024225;28;20519;-74
2020/12/01 11:21:58;;;;;;;41.67;18.38;;;3.50;99.90;;;;;;5024101;28;20029;-74
2020/12/01 11:24:24;;;;;;;38.60;19.38;;;3.50;99.90;;;;;;5023597;28;20065;-75
2020/12/01 11:26:49;;;;;;;38.75;18.95;;;3.50;99.90;;;;;;5011431;28;20087;-75
2020/12/01 11:29:15;;;;;;;45.95;19.75;;;3.60;99.90;;;;;;5023285;28;20084;-75
2020/12/01 11:31:44;;;;;;;40.80;20.23;;;3.80;99.90;;;;;;5022189;28;20579;-75
2020/12/01 11:34:12;;;;;;;42.30;19.77;;;3.50;99.90;;;;;;5030137;28;20034;-72
2020/12/01 11:36:39;;;;;;;40.60;20.20;;;3.50;99.90;;;;;;5034005;28;20021;-75
2020/12/01 11:39:07;;;;;;;46.55;20.77;;;3.50;99.90;;;;;;5024404;28;20017;-75
2020/12/01 11:41:33;;;;;;;45.45;20.48;;;3.40;99.90;;;;;;5019313;28;20462;-76
2020/12/01 11:44:02;;;;;;;47.85;20.30;;;3.40;99.90;;;;;;5019142;28;20037;-74
2020/12/01 11:46:27;;;;;;;48.78;21.48;;;3.40;99.90;;;;;;5035218;28;20036;-76
2020/12/01 11:48:53;;;;;;;44.47;20.35;;;3.40;99.90;;;;;;5021839;28;20033;-74
2020/12/01 11:51:19;;;;;;;41.38;19.83;;;3.40;99.90;;;;;;5035826;28;20022;-74
2020/12/01 11:53:45;;;;;;;39.75;20.27;;;3.50;99.90;;;;;;5020760;28;20032;-74
2020/12/01 11:56:13;;;;;;;39.60;20.17;;;3.50;99.90;;;;;;5001100;28;20499;-73
2020/12/01 11:58:39;;;;;;;44.47;20.02;;;3.60;99.90;;;;;;5029836;28;20040;-74
2020/12/01 12:01:04;;;;;;;38.63;19.08;;;3.70;99.90;;;;;;5023709;28;20034;-76
2020/12/01 12:03:30;;;;;;;35.00;18.00;;;3.80;99.90;;;;;;5011498;28;20411;-81
2020/12/01 12:05:55;;;;;;;41.60;19.60;;;3.90;99.90;;;;;;5028994;28;20049;-77
2020/12/01 12:08:21;;;;;;;39.42;18.85;;;3.90;99.90;;;;;;5026345;28;20034;-77
2020/12/01 12:10:47;;;;;;;39.65;19.40;;;3.80;99.90;;;;;;5009443;28;20030;-76
2020/12/01 12:13:12;;;;;;;36.13;17.85;;;3.80;99.90;;;;;;5025339;28;20018;-75
2020/12/01 12:15:38;;;;;;;37.60;18.05;;;3.80;99.90;;;;;;5021533;28;20043;-76
2020/12/01 12:18:04;;;;;;;38.85;18.70;;;3.80;99.90;;;;;;5025295;28;20034;-77
2020/12/01 12:20:30;;;;;;;36.83;18.67;;;3.80;99.90;;;;;;5023878;28;20075;-76
2020/12/01 12:22:55;;;;;;;36.00;18.25;;;3.70;99.90;;;;;;5026256;28;20060;-75
2020/12/01 12:25:21;;;;;;;34.72;18.13;;;3.70;99.90;;;;;;5012801;28;20041;-76
2020/12/01 12:27:47;;;;;;;41.80;18.85;;;3.70;99.90;;;;;;5025743;28;20388;-76
2020/12/01 12:30:12;;;;;;;39.47;18.13;;;3.70;99.90;;;;;;5023193;28;20044;-76
2020/12/01 12:32:38;;;;;;;35.40;18.67;;;3.70;99.90;;;;;;5001264;28;20046;-76
2020/12/01 12:35:05;;;;;;;38.55;18.85;;;3.70;99.90;;;;;;5023770;28;20038;-75
2020/12/01 12:37:31;;;;;;;44.15;19.00;;;3.70;99.90;;;;;;5022092;28;20034;-77
2020/12/01 12:39:59;;;;;;;36.28;19.95;;;3.70;99.90;;;;;;5027212;28;20605;-77
2020/12/01 12:42:25;;;;;;;43.88;19.23;;;3.70;99.90;;;;;;5022507;28;20049;-77
2020/12/01 12:44:51;;;;;;;39.70;18.38;;;3.70;99.90;;;;;;5037560;28;20036;-75
2020/12/01 12:47:17;;;;;;;36.72;18.92;;;4.00;99.90;;;;;;5025381;28;20184;-77
2020/12/01 12:49:43;;;;;;;39.42;19.98;;;3.70;99.90;;;;;;5017454;28;20045;-77
2020/12/01 12:52:08;;;;;;;38.45;19.13;;;3.70;99.90;;;;;;5021128;28;20526;-75
2020/12/01 12:54:34;;;;;;;35.63;18.73;;;3.70;99.90;;;;;;5028824;28;20021;-76
2020/12/01 12:57:05;;;;;;;39.83;19.60;;;3.70;99.90;;;;;;5027886;28;20042;-76
2020/12/01 12:59:31;;;;;;;41.33;19.13;;;3.80;99.90;;;;;;5019339;28;20060;-76
2020/12/01 13:01:56;;;;;;;34.85;18.33;;;3.70;99.90;;;;;;5025616;28;20049;-75
2020/12/01 13:04:22;;;;;;;43.95;19.45;;;3.70;99.90;;;;;;5013372;28;20041;-75
2020/12/01 13:06:48;;;;;;;41.17;19.42;;;3.80;99.90;;;;;;5025132;28;20064;-75
2020/12/01 13:09:14;;;;;;;43.70;19.60;;;3.80;99.90;;;;;;5027659;28;20046;-77
2020/12/01 13:11:40;;;;;;;39.60;18.98;;;3.80;99.90;;;;;;5027809;28;20611;-78
2020/12/01 13:14:05;;;;;;;36.33;18.23;;;3.80;99.90;;;;;;5024931;28;20050;-77
2020/12/01 13:16:31;;;;;;;36.78;19.52;;;3.80;99.90;;;;;;5025541;28;20129;-77
2020/12/01 13:18:56;;;;;;;38.47;18.05;;;3.80;99.90;;;;;;5012517;28;20457;-77
2020/12/01 13:21:22;;;;;;;36.88;18.13;;;4.90;99.90;;;;;;5024675;28;20096;-76
2020/12/01 13:23:48;;;;;;;35.92;18.15;;;3.80;99.90;;;;;;5027601;28;20034;-75
2020/12/01 13:26:18;;;;;;;33.40;17.83;;;3.80;99.90;;;;;;5011687;28;20046;-76
2020/12/01 13:28:44;;;;;;;36.15;18.10;;;3.80;99.90;;;;;;5029818;28;20506;-77
2020/12/01 13:31:09;;;;;;;39.25;19.40;;;3.90;99.90;;;;;;5025428;28;20072;-75
2020/12/01 13:33:35;;;;;;;35.72;17.88;;;3.90;99.90;;;;;;5024083;28;20033;-78
2020/12/01 13:36:03;;;;;;;34.17;18.35;;;3.90;99.90;;;;;;5004162;28;20132;-77
2020/12/01 13:38:29;;;;;;;42.05;19.40;;;3.90;99.90;;;;;;5023077;28;20057;-77
2020/12/01 13:40:54;;;;;;;35.13;17.88;;;3.90;99.90;;;;;;5004525;28;20067;-75
2020/12/01 13:43:20;;;;;;;38.90;18.48;;;3.90;99.90;;;;;;5026667;28;20069;-77
2020/12/01 13:45:46;;;;;;;40.28;17.75;;;3.90;99.90;;;;;;5026700;28;20499;-75